createdAt,value
2022-11-23T00:00:02.861Z,0.10
2022-11-23T00:03:02.332Z,0.20
2022-11-23T00:06:03.542Z,0.32
2022-11-23T00:09:02.489Z,0.13
2022-11-23T00:12:01.241Z,0.10
2022-11-23T00:15:00.037Z,0.17
2022-11-23T00:18:00.874Z,0.20
2022-11-23T00:20:59.707Z,0.38
2022-11-23T00:23:58.391Z,0.10
2022-11-23T00:26:57.064Z,0.20
2022-11-23T00:29:55.505Z,0.13
2022-11-23T00:32:56.056Z,0.20
2022-11-23T00:36:12.133Z,0.20
2022-11-23T00:39:10.997Z,0.20
2022-11-23T00:42:09.792Z,0.20
2022-11-23T00:45:09.341Z,0.13
2022-11-23T00:48:07.969Z,0.20
2022-11-23T00:51:09.762Z,0.13
2022-11-23T00:54:08.580Z,0.20
2022-11-23T00:57:07.209Z,0.40
2022-11-23T01:00:07.383Z,0.13
2022-11-23T01:03:06.040Z,0.60
2022-11-23T01:06:07.282Z,0.25
2022-11-23T01:09:10.158Z,1.08
2022-11-23T01:12:08.538Z,0.13
2022-11-23T01:15:07.721Z,0.17
2022-11-23T01:18:06.162Z,0.10
2022-11-23T01:21:05.047Z,0.43
2022-11-23T01:24:08.812Z,0.20
2022-11-23T01:27:07.473Z,0.30
2022-11-23T01:30:06.443Z,0.10
2022-11-23T01:33:05.733Z,0.35
2022-11-23T01:36:20.248Z,0.20
2022-11-23T01:39:18.962Z,0.10
2022-11-23T01:42:18.144Z,0.20
2022-11-23T01:45:41.105Z,0.10
2022-11-23T01:48:45.629Z,0.20
2022-11-23T01:51:49.486Z,0.20
2022-11-23T01:54:51.099Z,0.10
2022-11-23T01:57:49.804Z,0.10
2022-11-23T02:00:48.504Z,0.25
2022-11-23T02:03:49.055Z,0.20
2022-11-23T02:06:48.639Z,0.20
2022-11-23T02:09:48.392Z,0.10
2022-11-23T02:12:46.862Z,0.10
2022-11-23T02:15:45.812Z,0.38
2022-11-23T02:18:47.543Z,0.20
2022-11-23T02:21:47.082Z,0.10
2022-11-23T02:24:53.177Z,0.10
2022-11-23T02:27:52.691Z,0.10
2022-11-23T02:30:54.208Z,0.40
2022-11-23T02:33:52.920Z,0.25
2022-11-23T02:36:55.798Z,0.08
2022-11-23T02:39:56.987Z,0.20
2022-11-23T02:42:55.742Z,0.13
2022-11-23T02:45:58.039Z,0.30
2022-11-23T02:48:56.332Z,0.30
2022-11-23T02:51:55.077Z,0.32
2022-11-23T02:54:53.446Z,0.10
2022-11-23T02:57:52.156Z,0.10
2022-11-23T03:00:50.609Z,0.20
2022-11-23T03:03:50.194Z,0.20
2022-11-23T03:06:48.661Z,0.17
2022-11-23T03:09:47.304Z,0.10
2022-11-23T03:12:45.632Z,0.10
2022-11-23T03:15:44.861Z,0.10
2022-11-23T03:18:43.609Z,0.10
2022-11-23T03:21:42.319Z,0.10
2022-11-23T03:24:40.794Z,0.10
2022-11-23T03:27:39.998Z,0.10
2022-11-23T03:30:38.507Z,0.45
2022-11-23T03:33:37.349Z,0.10
2022-11-23T03:36:35.912Z,0.10
2022-11-23T03:39:34.828Z,0.00
2022-11-23T03:42:33.372Z,0.10
2022-11-23T03:45:32.276Z,0.10
2022-11-23T03:48:30.671Z,0.10
2022-11-23T03:51:30.026Z,0.10
2022-11-23T03:54:28.398Z,0.10
2022-11-23T03:57:27.011Z,0.20
2022-11-23T04:00:25.349Z,0.10
2022-11-23T04:03:24.098Z,0.15
2022-11-23T04:06:22.531Z,0.10
2022-11-23T04:09:21.165Z,0.10
2022-11-23T04:12:20.085Z,0.10
2022-11-23T04:15:19.529Z,0.20
2022-11-23T04:18:17.883Z,0.20
2022-11-23T04:21:16.633Z,0.25
2022-11-23T04:24:15.101Z,0.10
2022-11-23T04:27:13.921Z,0.10
2022-11-23T04:30:12.952Z,0.20
2022-11-23T04:33:11.762Z,0.10
2022-11-23T04:36:10.140Z,0.20
2022-11-23T04:39:09.101Z,0.10
2022-11-23T04:42:09.273Z,0.10
2022-11-23T04:45:08.355Z,0.00
2022-11-23T04:48:08.050Z,0.10
2022-11-23T04:51:07.906Z,0.10
2022-11-23T04:54:06.484Z,0.20
2022-11-23T04:57:05.453Z,0.10
2022-11-23T05:00:05.693Z,0.10
2022-11-23T05:03:05.037Z,0.10
2022-11-23T05:06:05.030Z,0.10
2022-11-23T05:09:03.889Z,0.32
2022-11-23T05:12:02.643Z,0.40
2022-11-23T05:15:01.484Z,0.40
2022-11-23T05:18:08.327Z,0.35
2022-11-23T05:21:07.335Z,0.45
2022-11-23T05:24:06.196Z,0.50
2022-11-23T05:27:04.860Z,0.30
2022-11-23T05:30:03.916Z,0.20
2022-11-23T05:33:07.284Z,0.10
2022-11-23T05:36:08.189Z,0.20
2022-11-23T05:39:07.202Z,0.17
2022-11-23T05:42:05.970Z,0.20
2022-11-23T05:45:09.989Z,0.35
2022-11-23T05:48:10.931Z,0.20
2022-11-23T05:51:09.860Z,0.10
2022-11-23T05:54:08.499Z,0.15
2022-11-23T05:57:07.483Z,0.10
2022-11-23T06:00:07.059Z,0.10
2022-11-23T06:03:06.097Z,0.10
2022-11-23T06:06:04.725Z,0.20
2022-11-23T06:09:04.382Z,0.10
2022-11-23T06:12:02.759Z,0.20
2022-11-23T06:15:01.439Z,0.28
2022-11-23T06:18:02.011Z,0.10
2022-11-23T06:21:02.474Z,0.10
2022-11-23T06:24:00.990Z,0.30
2022-11-23T06:26:59.989Z,0.10
2022-11-23T06:29:58.501Z,0.20
2022-11-23T06:32:58.349Z,0.40
2022-11-23T06:35:58.762Z,0.25
2022-11-23T06:38:57.475Z,0.20
2022-11-23T06:42:10.779Z,0.10
2022-11-23T06:45:15.276Z,0.28
2022-11-23T06:48:14.452Z,0.17
2022-11-23T06:51:13.761Z,0.10
2022-11-23T06:54:12.337Z,0.20
2022-11-23T06:57:11.617Z,0.10
2022-11-23T07:00:11.820Z,0.20
2022-11-23T07:03:23.643Z,0.10
2022-11-23T07:06:22.222Z,0.10
2022-11-23T07:09:20.942Z,0.20
2022-11-23T07:12:19.595Z,0.20
2022-11-23T07:15:18.583Z,0.10
2022-11-23T07:18:17.139Z,0.20
2022-11-23T07:21:16.083Z,0.20
2022-11-23T07:24:14.504Z,0.20
2022-11-23T07:27:13.410Z,0.40
2022-11-23T07:30:12.636Z,0.20
2022-11-23T07:33:13.538Z,0.57
2022-11-23T07:36:11.918Z,0.38
2022-11-23T07:39:10.628Z,0.30
2022-11-23T07:42:31.715Z,0.22
2022-11-23T07:45:28.570Z,0.32
2022-11-23T07:48:28.854Z,0.30
2022-11-23T07:51:31.223Z,0.20
2022-11-23T07:54:29.815Z,0.40
2022-11-23T07:57:28.825Z,0.40
2022-11-23T08:00:29.259Z,0.50
2022-11-23T08:03:29.385Z,0.55
2022-11-23T08:06:28.313Z,0.30
2022-11-23T08:09:26.972Z,0.20
2022-11-23T08:12:25.308Z,0.30
2022-11-23T08:15:24.587Z,0.30
2022-11-23T08:18:23.904Z,0.20
2022-11-23T08:21:22.740Z,0.32
2022-11-23T08:24:21.065Z,0.20
2022-11-23T08:27:20.175Z,0.20
2022-11-23T08:30:18.862Z,0.30
2022-11-23T08:33:17.920Z,0.30
2022-11-23T08:36:16.619Z,0.30
2022-11-23T08:39:16.813Z,0.17
2022-11-23T08:42:15.208Z,0.10
2022-11-23T08:45:13.941Z,0.10
2022-11-23T08:48:12.454Z,0.20
2022-11-23T08:51:11.674Z,0.30
2022-11-23T08:54:10.106Z,0.20
2022-11-23T08:57:09.076Z,0.20
2022-11-23T09:00:09.262Z,0.10
2022-11-23T09:03:08.022Z,0.20
2022-11-23T09:06:07.211Z,0.30
2022-11-23T09:09:06.063Z,0.25
2022-11-23T09:12:05.104Z,0.17
2022-11-23T09:15:04.168Z,0.10
2022-11-23T09:18:02.928Z,0.20
2022-11-23T09:21:04.774Z,0.20
2022-11-23T09:24:03.773Z,0.30
2022-11-23T09:27:02.577Z,0.32
2022-11-23T09:30:01.315Z,0.20
2022-11-23T09:33:02.617Z,0.40
2022-11-23T09:36:03.197Z,0.38
2022-11-23T09:39:02.125Z,0.50
2022-11-23T09:42:35.772Z,0.45
2022-11-23T09:45:52.374Z,0.32
2022-11-23T09:49:14.035Z,0.30
2022-11-23T09:52:20.351Z,0.38
2022-11-23T09:55:42.650Z,0.40
2022-11-23T09:58:41.793Z,0.40
2022-11-23T10:01:40.318Z,0.35
2022-11-23T10:04:39.292Z,0.40
2022-11-23T10:08:04.851Z,0.40
2022-11-23T10:11:27.539Z,0.30
2022-11-23T10:14:52.345Z,0.40
2022-11-23T10:18:23.892Z,0.32
2022-11-23T10:21:35.872Z,0.47
2022-11-23T10:24:43.416Z,0.30
2022-11-23T10:27:43.425Z,0.28
2022-11-23T10:30:42.985Z,0.20
2022-11-23T10:34:02.267Z,0.30
2022-11-23T10:37:01.070Z,0.35
2022-11-23T10:39:59.521Z,0.20
2022-11-23T10:43:03.394Z,0.20
2022-11-23T10:46:32.953Z,0.32
2022-11-23T10:49:34.008Z,0.50
2022-11-23T10:52:34.306Z,0.28
2022-11-23T10:55:51.293Z,0.30
2022-11-23T10:58:49.698Z,0.40
2022-11-23T11:02:02.822Z,0.25
2022-11-23T11:09:02.632Z,0.40
2022-11-23T11:12:02.099Z,0.30
2022-11-23T11:15:11.396Z,0.40
2022-11-23T11:18:20.116Z,0.40
2022-11-23T11:21:23.414Z,0.30
2022-11-23T11:24:30.540Z,0.35
2022-11-23T11:27:31.672Z,0.30
2022-11-23T11:30:40.208Z,0.30
2022-11-23T11:33:51.395Z,0.28
2022-11-23T11:37:01.238Z,0.30
2022-11-23T11:40:20.825Z,0.30
2022-11-23T11:43:35.002Z,0.30
2022-11-23T11:46:43.115Z,0.35
2022-11-23T11:49:46.855Z,0.43
2022-11-23T11:52:47.821Z,0.30
2022-11-23T11:55:58.035Z,0.68
2022-11-23T11:59:19.715Z,0.30
2022-11-23T12:02:32.064Z,0.40
2022-11-23T12:05:45.478Z,0.40
2022-11-23T12:08:57.499Z,0.52
2022-11-23T12:12:52.667Z,0.38
2022-11-23T12:16:00.438Z,0.52
2022-11-23T12:19:25.702Z,0.45
2022-11-23T12:22:48.196Z,0.77
2022-11-23T12:26:08.934Z,0.45
2022-11-23T12:29:28.190Z,0.55
2022-11-23T12:32:51.296Z,0.47
2022-11-23T12:36:04.639Z,0.73
2022-11-23T12:39:26.388Z,0.70
2022-11-23T12:42:34.561Z,0.55
2022-11-23T12:45:55.832Z,0.70
2022-11-23T12:49:15.853Z,0.55
2022-11-23T12:52:39.876Z,0.57
2022-11-23T12:55:53.758Z,0.50
2022-11-23T12:58:54.879Z,0.30
2022-11-23T13:02:02.112Z,0.60
2022-11-23T13:05:33.040Z,0.55
2022-11-23T13:08:59.784Z,0.60
2022-11-23T13:12:22.884Z,0.73
2022-11-23T13:15:54.257Z,0.70
2022-11-23T13:19:16.700Z,0.60
2022-11-23T13:22:20.035Z,0.70
2022-11-23T13:25:25.255Z,0.70
2022-11-23T13:28:32.434Z,0.50
2022-11-23T13:34:47.522Z,0.68
2022-11-23T13:38:21.405Z,0.88
2022-11-23T13:41:55.064Z,1.13
2022-11-23T13:45:14.883Z,1.00
2022-11-23T13:48:48.931Z,1.77
2022-11-23T13:51:37.965Z,1.33
2022-11-23T13:54:37.790Z,1.15
2022-11-23T13:57:38.774Z,1.25
2022-11-23T14:00:55.076Z,2.30
2022-11-23T14:03:57.343Z,2.50
2022-11-23T14:07:01.194Z,3.00
2022-11-23T14:10:10.218Z,3.08
2022-11-23T14:13:18.746Z,3.22
2022-11-23T14:16:37.840Z,3.70
2022-11-23T14:19:58.403Z,4.35
2022-11-23T14:23:19.142Z,3.75
2022-11-23T14:26:36.073Z,3.67
2022-11-23T14:29:57.310Z,3.70
2022-11-23T14:33:16.009Z,3.75
2022-11-23T14:36:32.565Z,4.47
2022-11-23T14:39:55.990Z,4.53
2022-11-23T14:42:57.989Z,3.92
2022-11-23T14:46:03.773Z,4.13
2022-11-23T14:49:07.948Z,4.30
2022-11-23T14:52:06.721Z,4.03
2022-11-23T14:55:07.266Z,3.95
2022-11-23T14:58:07.148Z,4.07
2022-11-23T15:01:06.451Z,4.35
2022-11-23T15:04:21.887Z,4.60
2022-11-23T15:07:25.133Z,4.18
2022-11-23T15:10:34.695Z,4.70
2022-11-23T15:13:44.927Z,4.80
2022-11-23T15:16:43.319Z,4.63
2022-11-23T15:19:43.801Z,4.55
2022-11-23T15:22:45.059Z,4.85
2022-11-23T15:25:52.744Z,4.43
2022-11-23T15:32:06.805Z,4.60
2022-11-23T15:35:13.669Z,4.47
2022-11-23T15:38:19.040Z,4.70
2022-11-23T15:41:20.569Z,5.07
2022-11-23T15:44:26.236Z,4.72
2022-11-23T15:47:28.212Z,5.05
2022-11-23T15:50:31.365Z,4.72
2022-11-23T15:53:50.639Z,5.70
2022-11-23T15:56:51.596Z,5.82
2022-11-23T15:59:56.274Z,5.30
2022-11-23T16:03:30.119Z,6.35
2022-11-23T16:06:36.584Z,6.43
2022-11-23T16:09:51.192Z,5.57
2022-11-23T16:12:52.453Z,6.65
2022-11-23T16:16:00.677Z,6.25
2022-11-23T16:18:59.634Z,7.20
2022-11-23T16:22:03.303Z,7.53
2022-11-23T16:25:09.366Z,7.57
2022-11-23T16:28:28.164Z,8.00
2022-11-23T16:31:36.325Z,7.15
2022-11-23T16:34:35.968Z,7.25
2022-11-23T16:37:37.315Z,7.45
2022-11-23T16:40:36.529Z,7.45
2022-11-23T16:43:35.694Z,7.40
2022-11-23T16:46:37.979Z,7.75
2022-11-23T16:49:41.450Z,7.30
2022-11-23T16:52:44.757Z,8.52
2022-11-23T16:55:43.959Z,8.30
2022-11-23T16:58:43.125Z,9.00
2022-11-23T17:01:44.279Z,8.07
2022-11-23T17:04:44.408Z,8.50
2022-11-23T17:07:43.882Z,8.45
2022-11-23T17:10:43.659Z,8.70
2022-11-23T17:13:44.312Z,8.73
2022-11-23T17:16:43.997Z,9.00
2022-11-23T17:19:42.940Z,8.27
2022-11-23T17:22:42.271Z,7.93
2022-11-23T17:25:42.081Z,8.77
2022-11-23T17:28:41.714Z,8.98
2022-11-23T17:31:41.357Z,8.63
2022-11-23T17:34:41.517Z,8.98
2022-11-23T17:37:43.838Z,9.48
2022-11-23T17:40:43.617Z,9.25
2022-11-23T17:43:43.328Z,9.57
2022-11-23T17:46:43.675Z,9.95
2022-11-23T17:49:42.914Z,9.00
2022-11-23T17:52:44.978Z,9.23
2022-11-23T17:55:44.200Z,8.98
2022-11-23T17:58:43.754Z,9.45
2022-11-23T18:01:42.681Z,9.23
2022-11-23T18:04:41.434Z,9.57
2022-11-23T18:07:41.945Z,9.13
2022-11-23T18:10:40.690Z,9.52
2022-11-23T18:13:40.106Z,10.40
2022-11-23T18:16:38.798Z,10.02
2022-11-23T18:19:37.221Z,10.07
2022-11-23T18:22:36.589Z,9.40
2022-11-23T18:25:34.951Z,9.80
2022-11-23T18:28:33.629Z,9.95
2022-11-23T18:31:32.131Z,10.02
2022-11-23T18:34:31.086Z,10.10
2022-11-23T18:37:29.447Z,9.95
2022-11-23T18:40:28.042Z,11.57
2022-11-23T18:43:26.534Z,10.63
2022-11-23T18:46:26.015Z,10.25
2022-11-23T18:49:25.202Z,10.52
2022-11-23T18:52:23.961Z,10.00
2022-11-23T18:55:22.288Z,9.93
2022-11-23T18:58:21.370Z,9.57
2022-11-23T19:01:22.042Z,9.85
2022-11-23T19:04:20.944Z,9.68
2022-11-23T19:07:25.101Z,10.25
2022-11-23T19:10:25.470Z,9.93
2022-11-23T19:13:23.826Z,9.68
2022-11-23T19:16:25.987Z,9.10
2022-11-23T19:19:24.425Z,9.50
2022-11-23T19:22:23.129Z,10.23
2022-11-23T19:25:21.493Z,9.80
2022-11-23T19:28:24.426Z,9.60
2022-11-23T19:31:27.713Z,10.15
2022-11-23T19:34:27.684Z,9.38
2022-11-23T19:37:26.033Z,9.85
2022-11-23T19:40:25.369Z,9.00
2022-11-23T19:43:23.726Z,8.80
2022-11-23T19:46:23.273Z,9.52
2022-11-23T19:49:21.847Z,9.77
2022-11-23T19:52:21.007Z,8.82
2022-11-23T19:55:19.587Z,9.20
2022-11-23T19:58:18.610Z,9.73
2022-11-23T20:01:20.013Z,8.82
2022-11-23T20:04:18.807Z,8.63
2022-11-23T20:07:17.288Z,9.55
2022-11-23T20:10:17.964Z,9.27
2022-11-23T20:13:16.460Z,8.32
2022-11-23T20:16:17.709Z,9.48
2022-11-23T20:19:16.247Z,7.68
2022-11-23T20:22:15.122Z,7.78
2022-11-23T20:25:13.876Z,7.97
2022-11-23T20:28:14.551Z,7.95
2022-11-23T20:31:20.450Z,8.07
2022-11-23T20:34:31.941Z,8.07
2022-11-23T20:37:32.959Z,8.05
2022-11-23T20:40:32.996Z,7.55
2022-11-23T20:43:31.987Z,7.75
2022-11-23T20:49:51.025Z,7.30
2022-11-23T20:52:49.944Z,7.53
2022-11-23T20:55:48.533Z,7.38
2022-11-23T20:58:54.219Z,6.82
2022-11-23T21:01:53.067Z,7.60
2022-11-23T21:04:51.897Z,7.50
2022-11-23T21:07:50.391Z,7.10
2022-11-23T21:11:04.653Z,7.15
2022-11-23T21:14:13.950Z,7.63
2022-11-23T21:17:16.195Z,6.97
2022-11-23T21:20:15.451Z,6.78
2022-11-23T21:23:14.474Z,6.15
2022-11-23T21:26:13.612Z,6.22
2022-11-23T21:29:13.644Z,6.10
2022-11-23T21:32:15.243Z,6.05
2022-11-23T21:35:14.316Z,6.38
2022-11-23T21:38:12.735Z,6.15
2022-11-23T21:41:15.105Z,6.07
2022-11-23T21:44:13.711Z,6.10
2022-11-23T21:47:12.569Z,5.45
2022-11-23T21:50:11.334Z,6.10
2022-11-23T21:53:10.121Z,5.13
2022-11-23T21:56:12.181Z,5.35
2022-11-23T21:59:21.108Z,5.05
2022-11-23T22:02:19.573Z,5.00
2022-11-23T22:05:18.344Z,4.70
2022-11-23T22:08:32.061Z,4.93
2022-11-23T22:11:33.501Z,4.82
2022-11-23T22:14:32.305Z,4.80
2022-11-23T22:17:31.155Z,4.88
2022-11-23T22:20:29.702Z,4.43
2022-11-23T22:23:28.407Z,4.32
2022-11-23T22:26:28.436Z,4.82
2022-11-23T22:29:27.098Z,4.60
2022-11-23T22:32:25.742Z,3.92
2022-11-23T22:35:24.509Z,4.47
2022-11-23T22:38:22.956Z,3.92
2022-11-23T22:41:21.900Z,4.03
2022-11-23T22:44:20.290Z,3.90
2022-11-23T22:47:19.042Z,4.28
2022-11-23T22:50:17.574Z,4.18
2022-11-23T22:53:17.473Z,4.00
2022-11-23T22:56:18.354Z,4.10
2022-11-23T22:59:20.462Z,3.65
2022-11-23T23:02:19.558Z,3.38
2022-11-23T23:05:19.969Z,4.35
2022-11-23T23:08:18.381Z,4.22
2022-11-23T23:11:17.167Z,4.15
2022-11-23T23:14:15.817Z,4.00
2022-11-23T23:17:14.542Z,4.63
2022-11-23T23:20:12.957Z,4.65
2022-11-23T23:23:11.942Z,3.70
2022-11-23T23:26:12.078Z,4.40
2022-11-23T23:29:25.934Z,4.60
2022-11-23T23:32:24.779Z,3.63
2022-11-23T23:35:24.068Z,3.75
2022-11-23T23:38:28.329Z,4.03
2022-11-23T23:41:27.247Z,3.35
2022-11-23T23:44:25.720Z,4.03
2022-11-23T23:47:24.855Z,3.85
2022-11-23T23:50:23.352Z,2.90
2022-11-23T23:53:22.848Z,2.85
2022-11-23T23:56:25.369Z,2.92
2022-11-23T23:59:24.248Z,3.30
